Tiempo atmosférico en la estación meteorológica de Cortes De La Frontera, Málaga (315 m.)



Fecha
DESCASC
Temp. máxima en grados centígrados (hora)
DESCASC
Temp. mínima en grados centígrados (hora)
DESCASC
Temp. media en grados centígrados
DESCASC
Racha de viento máxima en m/sg (hora)
DESCASC
Velocidad máxima media en intervalos de 10 minutos(hora)
DESCASC
Precipitaciones diarias en mm
DESCASC
Precipitaciones de 00:00 a 06:00 en mm
DESCASC
Precipitaciones de 06:00 a 12:00 en mm
DESCASC
Precipitaciones de 12:00 a 18:00 en mm
DESCASC
Precipitaciones de 18:00 a 24:00 en mm
DESCASC
30-11-2020 17.7 (12:00) 10.5 (00:00) 14.1 -- (--) -- (--) 0 0 0 0 0
29-11-2020 14 (16:20) 10.3 (00:00) 12.2 -- (--) -- (--) 7.2 3.4 0.6 3.2 0
28-11-2020 16.2 (14:40) 9.3 (00:00) 12.8 -- (--) -- (--) 5.2 0.2 0 1.2 3.8
27-11-2020 12.7 (15:10) 6.7 (00:00) 9.7 -- (--) -- (--) 1.2 0 0 1.2 0
26-11-2020 -- (--) -- (--) -- -- (--) -- (--) -- 16 9.6 -- 0
25-11-2020 -- (--) -- (--) -- -- (--) -- (--) -- 0 0.2 -- 13
24-11-2020 -- (--) -- (--) -- -- (--) -- (--) 0 0 0 0 0
23-11-2020 -- (--) -- (--) -- -- (--) -- (--) 0 0 0 0 0
22-11-2020 -- (--) -- (--) -- -- (--) -- (--) 0 0 0 0 0
21-11-2020 -- (--) -- (--) -- -- (--) -- (--) 0 0 0 0 0
20-11-2020 -- (--) -- (--) -- -- (--) -- (--) 0 0 0 0 0
19-11-2020 -- (--) -- (--) -- -- (--) -- (--) 0 0 0 0 0
18-11-2020 -- (--) -- (--) -- -- (--) -- (--) 0 0 0 0 0
17-11-2020 -- (--) -- (--) -- -- (--) -- (--) 0 0 0 0 0
16-11-2020 -- (--) -- (--) -- -- (--) -- (--) 0 0 0 0 0
15-11-2020 -- (--) -- (--) -- -- (--) -- (--) 0.2 0.2 0 0 0
14-11-2020 -- (--) -- (--) -- -- (--) -- (--) 3.8 1.2 1.8 0.6 0.2
13-11-2020 -- (--) -- (--) -- -- (--) -- (--) 0 0 0 0 0
12-11-2020 19.8 (14:10) 12.5 (00:00) 16.1 5.83 (15:10) 1.94 (15:00) 0 0 0 0 0
11-11-2020 19.8 (12:30) 11 (00:00) 15.4 6.11 (13:10) 2.5 (13:10) 0 0 0 0 0
10-11-2020 21 (13:00) 9.4 (00:00) 15.2 5.28 (14:50) 1.94 (14:20) 0 0 0 0 0
09-11-2020 20.5 (15:00) 9.7 (00:00) 15.1 4.72 (15:40) 1.67 (15:40) 0.2 0 0.2 0 0
08-11-2020 21.2 (13:20) 10 (00:00) 15.6 5.28 (14:20) 1.94 (14:20) 0 0 0 0 0
07-11-2020 20.9 (14:00) 11.7 (00:00) 16.3 5.83 (04:00) 2.22 (13:10) 5 3.8 1.2 0 0
06-11-2020 23.8 (14:00) 13.3 (00:00) 18.5 7.5 (11:00) 2.5 (12:30) 1 0.2 0 0 0.8
05-11-2020 20.9 (14:10) 14.2 (00:00) 17.5 11.67 (04:20) 3.06 (05:10) 23.8 4.6 19.2 0 0
04-11-2020 17.3 (12:50) 13.2 (00:00) 15.2 8.33 (23:59) 2.78 (23:59) 14.8 0 0.8 1 13
03-11-2020 21.4 (15:30) 10.2 (00:00) 15.8 4.17 (12:10) 1.67 (12:10) 0 0 0 0 0
02-11-2020 22.6 (14:50) 9.6 (00:00) 16.1 4.72 (15:10) 1.67 (14:30) 0 0 0 0 0

Gráficas

Temp. máximas Temp. mínimas Temp. medias Precipitaciones Rachas de viento máximas Velocidades máximas media en intervalos de 10 minutos

Datos horarios

Fecha y hora oficial Temperatura (ºC) Velocidad del viento (km/h) Dirección del viento Racha (km/h) Dirección de racha Precipitación (mm) Presión (hPa) Tendencia (hPa) Humedad (%)
2020-12-01 23:00:00 9.9 0 Calma -- -- 0 -- -- 95
2020-12-01 22:00:00 10.6 0 Calma -- -- 0 -- -- 94
2020-12-01 21:00:00 11.3 0 Calma -- -- 0 -- -- 93
2020-12-01 20:00:00 12.2 0 Calma -- -- 0 -- -- 92
2020-12-01 19:00:00 13.4 0 Calma -- -- 0 -- -- 89
2020-12-01 18:00:00 14.8 0 Calma -- -- 0 -- -- 87
2020-12-01 17:00:00 16.8 2 Sur -- -- 0 -- -- 80
2020-12-01 16:00:00 18 4 Sudeste -- -- 0 -- -- 74
2020-12-01 15:00:00 18.2 4 Sur -- -- 0 -- -- 72
2020-12-01 14:00:00 18 3 Sur -- -- 0 -- -- 73
2020-12-01 13:00:00 18.1 5 Sur -- -- 0 -- -- 69
2020-12-01 12:00:00 17.5 4 Sur -- -- 0 -- -- 65
2020-12-01 11:00:00 14.5 2 Sur -- -- 0 -- -- 77
2020-12-01 10:00:00 11.4 0 Calma -- -- 0 -- -- 89
2020-12-01 09:00:00 8.7 0 Calma -- -- 0 -- -- 97
2020-12-01 08:00:00 8.9 0 Calma -- -- 0 -- -- 96
2020-12-01 07:00:00 9.3 0 Calma -- -- 0 -- -- 95
2020-12-01 06:00:00 9.9 0 Calma -- -- 0 -- -- 94
2020-12-01 05:00:00 10.4 0 Calma -- -- 0 -- -- 94
2020-12-01 04:00:00 10.5 0 Calma -- -- 0 -- -- 93
2020-12-01 03:00:00 10.8 0 Calma -- -- 0 -- -- 91
2020-12-01 02:00:00 11.5 3 Noroeste -- -- 0 -- -- 89
2020-12-01 01:00:00 12.5 3 Norte -- -- 0 -- -- 86
2020-12-01 00:00:00 12.4 3 Norte -- -- 0 -- -- 87
2020-11-30 23:00:00 13.1 2 Norte -- -- 0 -- -- 85
2020-11-30 22:00:00 12.8 0 Calma -- -- 0 -- -- 86
2020-11-30 21:00:00 13.4 2 Norte -- -- 0 -- -- 83
2020-11-30 20:00:00 13.5 3 Norte -- -- 0 -- -- 84
2020-11-30 19:00:00 14.1 3 Norte -- -- 0 -- -- 81
2020-11-30 18:00:00 15.2 2 Norte -- -- 0 -- -- 77
2020-11-30 17:00:00 16 4 Nordeste -- -- 0 -- -- 71
2020-11-30 16:00:00 16.5 3 Sudeste -- -- 0 -- -- 71
2020-11-30 15:00:00 16.6 5 Este -- -- 0 -- -- 66
2020-11-30 14:00:00 16.8 6 Este -- -- 0 -- -- 69
2020-11-30 13:00:00 16.6 5 Este -- -- 0 -- -- 67
2020-11-30 12:00:00 17.7 6 Este -- -- 0 -- -- 65
2020-11-30 11:00:00 16.7 6 Este -- -- 0 -- -- 69
2020-11-30 10:00:00 13.4 3 Nordeste -- -- 0 -- -- 83
2020-11-30 09:00:00 11.6 2 Norte -- -- 0 -- -- 94
2020-11-30 08:00:00 10.7 0 Calma -- -- 0 -- -- 95
2020-11-30 07:00:00 10.6 2 Noroeste -- -- 0 -- -- 93
2020-11-30 06:00:00 10.8 3 Norte -- -- 0 -- -- 91
2020-11-30 05:00:00 11.5 2 Norte -- -- 0 -- -- 92
2020-11-30 04:00:00 11.6 4 Norte -- -- 0 -- -- 91
2020-11-30 03:00:00 11.2 3 Norte -- -- 0 -- -- 98
2020-11-30 02:00:00 11 3 Norte -- -- 0 -- -- 100
2020-11-30 01:00:00 10.6 0 Calma -- -- 0 -- -- 99
2020-11-30 00:00:00 10.5 0 Calma -- -- 0 -- -- 99
2020-11-29 23:00:00 10.7 2 Norte -- -- 0 -- -- 99
2020-11-29 22:00:00 10.6 0 Calma -- -- 0 -- -- 99
2020-11-29 21:00:00 10.3 0 Calma -- -- 0 -- -- 98
2020-11-29 20:00:00 10.8 2 Noroeste -- -- 0 -- -- 97
2020-11-29 19:00:00 11.8 2 Norte -- -- 0 -- -- 97
2020-11-29 18:00:00 12.8 2 Norte -- -- 0 -- -- 97
2020-11-29 17:00:00 13.1 2 Norte -- -- 0 -- -- 97
2020-11-29 16:00:00 13.9 0 Calma -- -- 0 -- -- 98
2020-11-29 15:00:00 13.5 0 Calma -- -- 0 -- -- 98
2020-11-29 14:00:00 13.5 0 Calma -- -- 2 -- -- 99
2020-11-29 13:00:00 13.2 0 Calma -- -- 1.2 -- -- 99
2020-11-29 12:00:00 13.2 0 Calma -- -- 0 -- -- 99
2020-11-29 11:00:00 12.5 0 Calma -- -- 0 -- -- 99
2020-11-29 10:00:00 11.6 2 Norte -- -- 0 -- -- 99
2020-11-29 09:00:00 10.6 0 Calma -- -- 0 -- -- 98
2020-11-29 08:00:00 11.1 0 Calma -- -- 0.2 -- -- 98
2020-11-29 07:00:00 11.9 0 Calma -- -- 0.4 -- -- 99
2020-11-29 06:00:00 11.9 2 Noroeste -- -- 0.4 -- -- 98
2020-11-29 05:00:00 12 0 Calma -- -- 1.4 -- -- 98
2020-11-29 04:00:00 12.2 3 Sudeste -- -- 0 -- -- 98
2020-11-29 03:00:00 12.4 0 Calma -- -- 0.2 -- -- 98
2020-11-29 02:00:00 12.5 0 Calma -- -- 0.4 -- -- 99
2020-11-29 01:00:00 12.3 3 Sudoeste -- -- 1 -- -- 99
2020-11-29 00:00:00 11.7 3 Norte -- -- 2.8 -- -- 99
2020-11-28 23:00:00 11.5 0 Calma -- -- 0 -- -- 98
2020-11-28 22:00:00 11.2 0 Calma -- -- 1 -- -- 98
2020-11-28 21:00:00 10.7 0 Calma -- -- 0 -- -- 97
2020-11-28 20:00:00 10.9 0 Calma -- -- 0 -- -- 95
2020-11-28 19:00:00 11.7 2 Norte -- -- 0 -- -- 95
2020-11-28 18:00:00 12.8 2 Norte -- -- 1 -- -- 93
2020-11-28 17:00:00 14 0 Calma -- -- 0 -- -- 87
2020-11-28 16:00:00 14 2 Norte -- -- 0 -- -- 85
2020-11-28 15:00:00 15.9 2 Norte -- -- 0.2 -- -- 72
2020-11-28 14:00:00 14.6 4 Sur -- -- 0 -- -- 82
2020-11-28 13:00:00 12.8 0 Calma -- -- 0 -- -- 93
2020-11-28 12:00:00 12.6 2 Sur -- -- 0 -- -- 92
2020-11-28 11:00:00 11.6 0 Calma -- -- 0 -- -- 97
2020-11-28 10:00:00 10.9 0 Calma -- -- 0 -- -- 99
2020-11-28 09:00:00 10.3 0 Calma -- -- 0 -- -- 98
2020-11-28 08:00:00 9.8 0 Calma -- -- 0 -- -- 98
2020-11-28 07:00:00 9.6 2 Norte -- -- 0 -- -- 98
2020-11-28 06:00:00 9.5 0 Calma -- -- 0 -- -- 98
2020-11-28 05:00:00 9.6 0 Calma -- -- 0 -- -- 98
2020-11-28 04:00:00 9.3 0 Calma -- -- 0 -- -- 98
2020-11-28 03:00:00 9.6 0 Calma -- -- 0.2 -- -- 98
2020-11-28 02:00:00 9.5 0 Calma -- -- 0 -- -- 98
2020-11-28 01:00:00 9.4 0 Calma -- -- 0 -- -- 98
2020-11-28 00:00:00 9.3 0 Calma -- -- 0 -- -- 98
2020-11-27 23:00:00 9.1 0 Calma -- -- 0 -- -- 96
2020-11-27 22:00:00 9.7 0 Calma -- -- 0 -- -- 97
2020-11-27 21:00:00 9.7 0 Calma -- -- 0 -- -- 97
2020-11-27 20:00:00 9.7 0 Calma -- -- 0 -- -- 96
2020-11-27 19:00:00 9.9 0 Calma -- -- 0 -- -- 95
2020-11-27 18:00:00 10.2 0 Calma -- -- 0.4 -- -- 94
2020-11-27 17:00:00 10.9 0 Calma -- -- 0.8 -- -- 90
2020-11-27 16:00:00 12.4 4 Este -- -- 0 -- -- 79
2020-11-27 15:00:00 12.6 0 Calma -- -- 0 -- -- 76
2020-11-27 14:00:00 12.1 2 Sur -- -- 0 -- -- 79
2020-11-27 13:00:00 12.4 3 Sudeste -- -- 0 -- -- 81
2020-11-27 12:00:00 11.6 2 Sur -- -- 0 -- -- 83
2020-11-27 11:00:00 11 2 Sudeste -- -- 0 -- -- 86
2020-11-27 10:00:00 8.1 0 Calma -- -- 0 -- -- 97
2020-11-27 09:00:00 7.1 0 Calma -- -- 0 -- -- 98
2020-11-27 08:00:00 7 0 Calma -- -- 0 -- -- 98
2020-11-27 07:00:00 6.9 0 Calma -- -- 0 -- -- 97
2020-11-27 06:00:00 7.1 0 Calma -- -- 0 -- -- 98
2020-11-27 05:00:00 7.1 0 Calma -- -- 0 -- -- 98
2020-11-27 04:00:00 7 0 Calma -- -- 0 -- -- 98
2020-11-27 03:00:00 7 0 Calma -- -- 0 -- -- 98
2020-11-27 02:00:00 6.7 0 Calma -- -- 0 -- -- 97
2020-11-27 01:00:00 7 0 Calma -- -- 0 -- -- 97
2020-11-27 00:00:00 7.2 0 Calma -- -- 0 -- -- 96
2020-11-26 23:00:00 7.3 0 Calma -- -- 0 -- -- 96
2020-11-26 22:00:00 7.8 0 Calma -- -- 0 -- -- 95
2020-11-26 21:00:00 8.5 0 Calma -- -- 0 -- -- 92
2020-11-26 20:00:00 9.5 0 Calma -- -- 0 -- -- 90
2020-11-26 19:00:00 10.4 0 Calma -- -- 0 -- -- 87
2020-11-26 18:00:00 10.8 0 Calma -- -- 0 -- -- 91
2020-11-26 17:00:00 11.4 0 Calma -- -- 0 -- -- 88
2020-11-26 16:00:00 11.7 3 Sudeste -- -- -- -- -- 82
2020-11-26 15:00:00 11.2 4 Sur -- -- 0 -- -- 86
2020-11-26 14:00:00 10.5 2 Norte -- -- 0 -- -- 94
2020-11-26 13:00:00 10.4 4 Sur -- -- 0 -- -- 94
2020-11-26 12:00:00 -- -- -- -- -- 0.2 -- -- --
2020-11-26 11:00:00 -- -- -- -- -- 0 -- -- --
2020-11-26 10:00:00 -- -- -- -- -- 0.6 -- -- --
2020-11-26 09:00:00 -- -- -- -- -- 1 -- -- --
2020-11-26 08:00:00 -- -- -- -- -- 4.2 -- -- --
2020-11-26 07:00:00 -- -- -- -- -- 3.6 -- -- --
2020-11-26 06:00:00 -- -- -- -- -- 0.6 -- -- --
2020-11-26 05:00:00 -- -- -- -- -- 0 -- -- --
2020-11-26 04:00:00 -- -- -- -- -- 0.2 -- -- --
2020-11-26 03:00:00 -- -- -- -- -- 0.4 -- -- --
2020-11-26 02:00:00 -- -- -- -- -- 0.6 -- -- --
2020-11-26 01:00:00 -- -- -- -- -- 14.2 -- -- --
2020-11-26 00:00:00 -- -- -- -- -- 2.4 -- -- --
2020-11-25 23:00:00 -- -- -- -- -- 1 -- -- --
2020-11-25 22:00:00 -- -- -- -- -- 1.2 -- -- --
2020-11-25 21:00:00 -- -- -- -- -- 5.8 -- -- --
2020-11-25 20:00:00 -- -- -- -- -- 1.2 -- -- --
2020-11-25 19:00:00 -- -- -- -- -- 1.4 -- -- --
2020-11-25 18:00:00 -- -- -- -- -- 0 -- -- --
2020-11-25 17:00:00 -- -- -- -- -- -- -- -- --
2020-11-25 16:00:00 -- -- -- -- -- -- -- -- --
2020-11-25 15:00:00 -- -- -- -- -- -- -- -- --
2020-11-25 14:00:00 -- -- -- -- -- -- -- -- --
2020-11-25 13:00:00 -- -- -- -- -- -- -- -- --
2020-11-25 12:00:00 -- -- -- -- -- -- -- -- --
2020-11-25 11:00:00 -- -- -- -- -- -- -- -- --
2020-11-25 10:00:00 -- -- -- -- -- -- -- -- --
2020-11-25 09:00:00 -- -- -- -- -- -- -- -- --
2020-11-25 08:00:00 -- -- -- -- -- -- -- -- --
2020-11-25 07:00:00 -- -- -- -- -- -- -- -- --
2020-11-25 06:00:00 -- -- -- -- -- -- -- -- --
2020-11-25 05:00:00 -- -- -- -- -- -- -- -- --
2020-11-25 04:00:00 -- -- -- -- -- -- -- -- --
2020-11-25 03:00:00 -- -- -- -- -- -- -- -- --
2020-11-25 02:00:00 -- -- -- -- -- -- -- -- --
2020-11-25 01:00:00 -- -- -- -- -- 0 -- -- --
2020-11-25 00:00:00 -- -- -- -- -- 0 -- -- --
2020-11-24 23:00:00 -- -- -- -- -- 0 -- -- --
2020-11-24 22:00:00 -- -- -- -- -- 0 -- -- --
2020-11-24 21:00:00 13.6 0 Calma -- -- 0 -- -- 90
2020-11-24 20:00:00 13.8 0 Calma -- -- 0 -- -- 87
2020-11-24 19:00:00 14.1 0 Calma -- -- 0 -- -- 85
2020-11-24 18:00:00 14.7 0 Calma -- -- 0 -- -- 81
2020-11-24 17:00:00 16 3 Sur -- -- 0 -- -- 74
2020-11-24 16:00:00 16.4 3 Sudeste -- -- 0 -- -- 71
2020-11-24 15:00:00 16.8 5 Sur -- -- 0 -- -- 69
2020-11-24 14:00:00 16.1 2 Sur -- -- 0 -- -- 70
2020-11-24 13:00:00 16.1 3 Sur -- -- 0 -- -- 70
2020-11-24 12:00:00 17.5 6 Sur -- -- 0 -- -- 65
2020-11-24 11:00:00 13 0 Calma -- -- 0 -- -- 80
2020-11-24 10:00:00 10.6 2 Sur -- -- 0 -- -- 87
2020-11-24 09:00:00 -- -- -- -- -- 0 -- -- --
2020-11-24 08:00:00 -- -- -- -- -- 0 -- -- --
2020-11-24 07:00:00 -- -- -- -- -- 0 -- -- --
2020-11-24 06:00:00 -- -- -- -- -- 0 -- -- --
2020-11-24 05:00:00 -- -- -- -- -- 0 -- -- --
2020-11-24 04:00:00 -- -- -- -- -- 0 -- -- --
2020-11-24 03:00:00 -- -- -- -- -- 0 -- -- --
2020-11-24 02:00:00 -- -- -- -- -- 0 -- -- --
2020-11-24 01:00:00 -- -- -- -- -- 0 -- -- --
2020-11-24 00:00:00 7.4 0 Calma -- -- 0 -- -- 88
2020-11-23 23:00:00 7.8 0 Calma -- -- 0 -- -- 88
2020-11-23 22:00:00 8.5 2 Norte -- -- 0 -- -- 88
2020-11-23 21:00:00 9.1 0 Calma -- -- 0 -- -- 87
2020-11-23 20:00:00 10 2 Noroeste -- -- 0 -- -- 84
2020-11-23 19:00:00 11.4 2 Noroeste -- -- 0 -- -- 80
2020-11-23 18:00:00 13.6 0 Calma -- -- 0 -- -- 74
2020-11-23 17:00:00 15.1 3 Sudoeste -- -- 0 -- -- 65
2020-11-23 16:00:00 16.2 5 Sudeste -- -- 0 -- -- 62
2020-11-23 15:00:00 16.9 5 Sudeste -- -- 0 -- -- 62
2020-11-23 14:00:00 17.5 6 Sudeste -- -- 0 -- -- 56
2020-11-23 13:00:00 18.1 6 Sur -- -- 0 -- -- 56
2020-11-23 12:00:00 17.5 9 Sudeste -- -- 0 -- -- 56
2020-11-23 11:00:00 16.2 5 Sur -- -- 0 -- -- 61
2020-11-23 10:00:00 12.7 0 Calma -- -- 0 -- -- 81
2020-11-23 09:00:00 -- -- -- -- -- 0 -- -- --
2020-11-23 08:00:00 -- -- -- -- -- 0 -- -- --
2020-11-23 07:00:00 -- -- -- -- -- 0 -- -- --
2020-11-23 06:00:00 -- -- -- -- -- 0 -- -- --
2020-11-23 05:00:00 -- -- -- -- -- 0 -- -- --
2020-11-23 04:00:00 -- -- -- -- -- 0 -- -- --
2020-11-23 03:00:00 -- -- -- -- -- 0 -- -- --
2020-11-23 02:00:00 -- -- -- -- -- 0 -- -- --
2020-11-23 01:00:00 -- -- -- -- -- 0 -- -- --
2020-11-23 00:00:00 7.9 0 Calma -- -- 0 -- -- 87
2020-11-22 23:00:00 7.9 0 Calma -- -- 0 -- -- 86
2020-11-22 22:00:00 8.2 0 Calma -- -- 0 -- -- 82
2020-11-22 21:00:00 8.8 2 Norte -- -- 0 -- -- 81
2020-11-22 20:00:00 9.9 2 Norte -- -- 0 -- -- 80
2020-11-22 19:00:00 11.5 3 Norte -- -- 0 -- -- 75
2020-11-22 18:00:00 13.9 4 Este -- -- 0 -- -- 65
2020-11-22 17:00:00 15.6 6 Sudeste -- -- 0 -- -- 60
2020-11-22 16:00:00 16.5 6 Sudeste -- -- 0 -- -- 54
2020-11-22 15:00:00 17.2 9 Sudeste -- -- 0 -- -- 51
2020-11-22 14:00:00 17.6 9 Sudeste -- -- 0 -- -- 51
2020-11-22 13:00:00 18.2 6 Sudeste -- -- 0 -- -- 51
2020-11-22 12:00:00 18 4 Este -- -- 0 -- -- 57
2020-11-22 11:00:00 17.2 6 Sudeste -- -- 0 -- -- 59
2020-11-22 10:00:00 15.7 4 Este -- -- 0 -- -- 66
2020-11-22 09:00:00 -- -- -- -- -- 0 -- -- --
2020-11-22 08:00:00 -- -- -- -- -- 0 -- -- --
2020-11-22 07:00:00 -- -- -- -- -- 0 -- -- --
2020-11-22 06:00:00 -- -- -- -- -- 0 -- -- --
2020-11-22 05:00:00 -- -- -- -- -- 0 -- -- --
2020-11-22 04:00:00 -- -- -- -- -- 0 -- -- --
2020-11-22 03:00:00 -- -- -- -- -- 0 -- -- --
2020-11-22 02:00:00 -- -- -- -- -- 0 -- -- --
2020-11-22 01:00:00 -- -- -- -- -- 0 -- -- --
2020-11-22 00:00:00 -- -- -- -- -- 0 -- -- --
2020-11-21 23:00:00 -- -- -- -- -- 0 -- -- --
2020-11-21 22:00:00 -- -- -- -- -- 0 -- -- --
2020-11-21 21:00:00 -- -- -- -- -- 0 -- -- --
2020-11-21 20:00:00 -- -- -- -- -- 0 -- -- --
2020-11-21 19:00:00 -- -- -- -- -- 0 -- -- --
2020-11-21 18:00:00 14.6 2 Norte -- -- 0 -- -- 76
2020-11-21 17:00:00 15.5 3 Nordeste -- -- 0 -- -- 71
2020-11-21 16:00:00 15.9 3 Este -- -- 0 -- -- 70
2020-11-21 15:00:00 16.3 4 Sudeste -- -- 0 -- -- 73
2020-11-21 14:00:00 16.2 3 Sudeste -- -- 0 -- -- 72
2020-11-21 13:00:00 16 3 Este -- -- 0 -- -- 74
2020-11-21 12:00:00 16.1 3 Este -- -- 0 -- -- 78
2020-11-21 11:00:00 -- -- -- -- -- 0 -- -- --
2020-11-21 10:00:00 -- -- -- -- -- 0 -- -- --
2020-11-21 09:00:00 -- -- -- -- -- 0 -- -- --
2020-11-21 08:00:00 -- -- -- -- -- 0 -- -- --
2020-11-21 07:00:00 -- -- -- -- -- 0 -- -- --
2020-11-21 06:00:00 -- -- -- -- -- 0 -- -- --
2020-11-21 05:00:00 -- -- -- -- -- 0 -- -- --
2020-11-21 04:00:00 -- -- -- -- -- 0 -- -- --
2020-11-21 03:00:00 -- -- -- -- -- 0 -- -- --
2020-11-21 02:00:00 -- -- -- -- -- -- -- -- --
2020-11-21 01:00:00 -- -- -- -- -- 0 -- -- --
2020-11-21 00:00:00 -- -- -- -- -- 0 -- -- --
2020-11-20 23:00:00 -- -- -- -- -- 0 -- -- --
2020-11-20 22:00:00 12.2 0 Calma -- -- 0 -- -- 93
2020-11-20 21:00:00 12.1 2 Noroeste -- -- 0 -- -- 91
2020-11-20 20:00:00 13 2 Norte -- -- 0 -- -- 89
2020-11-20 19:00:00 14.2 0 Calma -- -- 0 -- -- 87
2020-11-20 18:00:00 16.1 0 Calma -- -- 0 -- -- 81
2020-11-20 17:00:00 17.7 3 Sur -- -- 0 -- -- 75
2020-11-20 16:00:00 19 4 Sur -- -- 0 -- -- 71
2020-11-20 15:00:00 19.7 6 Sur -- -- 0 -- -- 67
2020-11-20 14:00:00 19.9 6 Sur -- -- 0 -- -- 68
2020-11-20 13:00:00 20.6 5 Sur -- -- 0 -- -- 66
2020-11-20 12:00:00 20.2 5 Sur -- -- 0 -- -- 67
2020-11-20 11:00:00 18.5 5 Sur -- -- 0 -- -- 72
2020-11-20 10:00:00 16 2 Sur -- -- 0 -- -- 77
2020-11-20 09:00:00 -- -- -- -- -- 0 -- -- --
2020-11-20 08:00:00 -- -- -- -- -- 0 -- -- --
2020-11-20 07:00:00 -- -- -- -- -- 0 -- -- --
2020-11-20 06:00:00 -- -- -- -- -- 0 -- -- --
2020-11-20 05:00:00 -- -- -- -- -- 0 -- -- --
2020-11-20 04:00:00 -- -- -- -- -- 0 -- -- --
2020-11-20 03:00:00 -- -- -- -- -- 0 -- -- --
2020-11-20 02:00:00 -- -- -- -- -- 0 -- -- --
2020-11-20 01:00:00 -- -- -- -- -- 0 -- -- --
2020-11-20 00:00:00 -- -- -- -- -- 0 -- -- --
2020-11-19 23:00:00 -- -- -- -- -- 0 -- -- --
2020-11-19 22:00:00 -- -- -- -- -- 0 -- -- --
2020-11-19 21:00:00 13.5 2 Norte -- -- 0 -- -- 85
2020-11-19 20:00:00 14.5 2 Norte -- -- 0 -- -- 82
2020-11-19 19:00:00 14.8 2 Norte -- -- 0 -- -- 81
2020-11-19 18:00:00 16.9 0 Calma -- -- 0 -- -- 75
2020-11-19 17:00:00 18.8 5 Sur -- -- 0 -- -- 68
2020-11-19 16:00:00 20 5 Sudeste -- -- 0 -- -- 63
2020-11-19 15:00:00 21.1 9 Sudeste -- -- 0 -- -- 57
2020-11-19 14:00:00 21.6 7 Sudeste -- -- 0 -- -- 58
2020-11-19 13:00:00 22.1 8 Sudeste 23 Sudeste 0 -- -- 55
2020-11-19 12:00:00 21.1 9 Sudeste 21 Sudeste 0 -- -- 59
2020-11-19 11:00:00 19.7 8 Sudeste 18 Este 0 -- -- 66
2020-11-19 10:00:00 14.9 2 Este 9 Sudoeste 0 -- -- 87
2020-11-19 09:00:00 -- -- -- -- -- 0 -- -- --
2020-11-19 08:00:00 -- -- -- -- -- 0 -- -- --
2020-11-19 07:00:00 -- -- -- -- -- 0 -- -- --
2020-11-19 06:00:00 -- -- -- -- -- 0 -- -- --
2020-11-19 05:00:00 -- -- -- -- -- 0 -- -- --
2020-11-19 04:00:00 -- -- -- -- -- 0 -- -- --
2020-11-19 03:00:00 -- -- -- -- -- 0 -- -- --
2020-11-19 02:00:00 -- -- -- -- -- 0 -- -- --
2020-11-19 01:00:00 -- -- -- -- -- 0 -- -- --
2020-11-19 00:00:00 -- -- -- -- -- 0 -- -- --
2020-11-18 23:00:00 -- -- -- -- -- 0 -- -- --
2020-11-18 22:00:00 15.7 0 Calma 3 Noroeste 0 -- -- 90
2020-11-18 21:00:00 15.8 0 Calma 5 Sudoeste 0 -- -- 90
2020-11-18 20:00:00 15.9 0 Calma 5 Sudoeste 0 -- -- 89
2020-11-18 19:00:00 16.2 0 Calma 5 Noroeste 0 -- -- 87
2020-11-18 18:00:00 16.9 2 Sudeste 7 Sur 0 -- -- 86
2020-11-18 17:00:00 17.9 2 Sudeste 12 Sur 0 -- -- 83
2020-11-18 16:00:00 18.9 5 Sur 15 Sudoeste 0 -- -- 76
2020-11-18 15:00:00 19.4 6 Sur 16 Sudoeste 0 -- -- 71
2020-11-18 14:00:00 19.5 5 Sur 15 Sudoeste 0 -- -- 73
2020-11-18 13:00:00 19.2 5 Sur 15 Sudoeste 0 -- -- 75
2020-11-18 12:00:00 18 3 Sudeste 8 Sudeste 0 -- -- 78
2020-11-18 11:00:00 15.9 0 Calma -- -- 0 -- -- 86
2020-11-18 10:00:00 -- -- -- -- -- 0 -- -- --
2020-11-18 09:00:00 -- -- -- -- -- 0 -- -- --
2020-11-18 08:00:00 -- -- -- -- -- 0 -- -- --
2020-11-18 07:00:00 -- -- -- -- -- 0 -- -- --
2020-11-18 06:00:00 -- -- -- -- -- 0 -- -- --
2020-11-18 05:00:00 -- -- -- -- -- 0 -- -- --
2020-11-18 04:00:00 -- -- -- -- -- 0 -- -- --
2020-11-18 03:00:00 -- -- -- -- -- 0 -- -- --
2020-11-18 02:00:00 -- -- -- -- -- 0 -- -- --
2020-11-18 01:00:00 -- -- -- -- -- 0 -- -- --
2020-11-18 00:00:00 -- -- -- -- -- 0 -- -- --
2020-11-17 23:00:00 15.2 0 Calma 3 Noroeste 0 -- -- 92
2020-11-17 22:00:00 15.7 0 Calma 3 Sur 0 -- -- 92
2020-11-17 21:00:00 15.7 0 Calma 2 Norte 0 -- -- 92
2020-11-17 20:00:00 15.2 0 Calma 3 Noroeste 0 -- -- 90
2020-11-17 19:00:00 16.2 2 Norte 3 Noroeste 0 -- -- 88
2020-11-17 18:00:00 18 0 Calma 5 Sudoeste 0 -- -- 85
2020-11-17 17:00:00 19.7 2 Sudoeste 11 Sur 0 -- -- 80
2020-11-17 16:00:00 20.4 4 Sur 13 Sur 0 -- -- 77
2020-11-17 15:00:00 20.7 5 Sur 16 Sur 0 -- -- 75
2020-11-17 14:00:00 21.3 6 Sur 15 Sur 0 -- -- 74
2020-11-17 13:00:00 21.7 5 Sur 17 Sur 0 -- -- 67
2020-11-17 12:00:00 21.1 5 Sur 11 Sur 0 -- -- 61
2020-11-17 11:00:00 18.8 2 Sudeste 5 Sudeste 0 -- -- 65
2020-11-17 10:00:00 15.4 0 Calma 4 Sur 0 -- -- 75
2020-11-17 09:00:00 11.3 0 Calma -- -- 0 -- -- 95
2020-11-17 08:00:00 -- -- -- -- -- 0 -- -- --
2020-11-17 07:00:00 -- -- -- -- -- 0 -- -- --
2020-11-17 06:00:00 -- -- -- -- -- 0 -- -- --
2020-11-17 05:00:00 -- -- -- -- -- 0 -- -- --
2020-11-17 04:00:00 -- -- -- -- -- 0 -- -- --
2020-11-17 03:00:00 -- -- -- -- -- 0 -- -- --
2020-11-17 02:00:00 -- -- -- -- -- 0 -- -- --
2020-11-17 01:00:00 -- -- -- -- -- 0 -- -- --
2020-11-17 00:00:00 13.9 0 Calma 4 Noroeste 0 -- -- 78
2020-11-16 23:00:00 14.5 2 Noroeste 4 Noroeste 0 -- -- 78
2020-11-16 22:00:00 15.3 2 Norte 5 Noroeste 0 -- -- 71
2020-11-16 21:00:00 16.1 3 Norte 5 Norte 0 -- -- 77
2020-11-16 20:00:00 17.1 3 Noroeste 6 Norte 0 -- -- 82
2020-11-16 19:00:00 17.7 3 Noroeste 6 Norte 0 -- -- 76
2020-11-16 18:00:00 19.2 3 Norte 8 Norte 0 -- -- 69
2020-11-16 17:00:00 21.3 2 Norte 17 Sur 0 -- -- 55
2020-11-16 16:00:00 23.5 3 Nordeste 10 Sudoeste 0 -- -- 50
2020-11-16 15:00:00 24.3 3 Norte 20 Sudoeste 0 -- -- 44
2020-11-16 14:00:00 24.9 4 Sudeste 15 Sur 0 -- -- 44
2020-11-16 13:00:00 25.4 3 Nordeste 16 Norte 0 -- -- 47
2020-11-16 12:00:00 24.1 3 Sudeste 13 Sur 0 -- -- 53
2020-11-16 11:00:00 20.6 3 Sudoeste 6 Sudoeste 0 -- -- 69
2020-11-16 10:00:00 15.1 0 Calma 3 Sur 0 -- -- 92
2020-11-16 09:00:00 -- -- -- -- -- 0 -- -- --
2020-11-16 08:00:00 -- -- -- -- -- 0 -- -- --
2020-11-16 07:00:00 -- -- -- -- -- 0 -- -- --
2020-11-16 06:00:00 -- -- -- -- -- 0 -- -- --
2020-11-16 05:00:00 -- -- -- -- -- 0 -- -- --
2020-11-16 04:00:00 -- -- -- -- -- 0 -- -- --
2020-11-16 03:00:00 -- -- -- -- -- 0 -- -- --
2020-11-16 02:00:00 -- -- -- -- -- 0 -- -- --
2020-11-16 01:00:00 -- -- -- -- -- 0 -- -- --
2020-11-16 00:00:00 -- -- -- -- -- 0 -- -- --
2020-11-15 23:00:00 -- -- -- -- -- 0 -- -- --
2020-11-15 22:00:00 -- -- -- -- -- 0 -- -- --
2020-11-15 21:00:00 15.1 2 Norte 3 Norte 0 -- -- 91
2020-11-15 20:00:00 15.7 2 Norte 3 Norte 0 -- -- 90
2020-11-15 19:00:00 16.9 3 Norte 3 Norte 0 -- -- 87
2020-11-15 18:00:00 18.5 2 Norte 5 Sur 0 -- -- 84
2020-11-15 17:00:00 20.1 0 Calma 8 Sur 0 -- -- 79
2020-11-15 16:00:00 21.9 3 Sur 10 Sudoeste 0 -- -- 74
2020-11-15 15:00:00 22.1 3 Sur 11 Sudoeste 0 -- -- 70
2020-11-15 14:00:00 21.8 4 Sur 10 Sudeste 0 -- -- 70
2020-11-15 13:00:00 21.2 5 Sur 12 Sudoeste 0 -- -- 68
2020-11-15 12:00:00 20.1 2 Sudeste 6 Sudeste 0 -- -- 76
2020-11-15 11:00:00 17.6 0 Calma 4 Sudeste 0 -- -- 87
2020-11-15 10:00:00 14.5 0 Calma 4 Sur 0 -- -- 97
2020-11-15 09:00:00 -- -- -- -- -- 0 -- -- --
2020-11-15 08:00:00 -- -- -- -- -- 0 -- -- --
2020-11-15 07:00:00 -- -- -- -- -- 0 -- -- --
2020-11-15 06:00:00 -- -- -- -- -- 0.2 -- -- --
2020-11-15 05:00:00 -- -- -- -- -- 0 -- -- --
2020-11-15 04:00:00 -- -- -- -- -- 0 -- -- --
2020-11-15 03:00:00 -- -- -- -- -- 0 -- -- --
2020-11-15 02:00:00 -- -- -- -- -- 0 -- -- --
2020-11-15 01:00:00 -- -- -- -- -- 0 -- -- --
2020-11-15 00:00:00 -- -- -- -- -- 0 -- -- --
2020-11-14 23:00:00 -- -- -- -- -- 0 -- -- --
2020-11-14 22:00:00 -- -- -- -- -- 0 -- -- --
2020-11-14 21:00:00 15.3 0 Calma -- -- 0 -- -- 95
2020-11-14 20:00:00 16 0 Calma 3 Noroeste 0 -- -- 96
2020-11-14 19:00:00 16.6 0 Calma 2 Norte 0.2 -- -- 94
2020-11-14 18:00:00 17.3 0 Calma 3 Norte 0.4 -- -- 93
2020-11-14 17:00:00 18.1 0 Calma 8 Oeste 0 -- -- 88
2020-11-14 16:00:00 18.1 0 Calma 5 Sur 0 -- -- 87
2020-11-14 15:00:00 17.8 2 Sur 9 Sur 0 -- -- 90
2020-11-14 14:00:00 17.1 2 Sudoeste 4 Oeste 0 -- -- 95
2020-11-14 13:00:00 16.5 0 Calma 5 Sudeste 0.2 -- -- 97
2020-11-14 12:00:00 16.2 0 Calma 7 Sur 0 -- -- 98
2020-11-14 11:00:00 -- -- -- -- -- 0 -- -- --
2020-11-14 10:00:00 -- -- -- -- -- 0.8 -- -- --
2020-11-14 09:00:00 -- -- -- -- -- 1 -- -- --
2020-11-14 08:00:00 -- -- -- -- -- 0 -- -- --
2020-11-14 07:00:00 -- -- -- -- -- 0 -- -- --
2020-11-14 06:00:00 -- -- -- -- -- 0.8 -- -- --
2020-11-14 05:00:00 -- -- -- -- -- 0.4 -- -- --
2020-11-14 04:00:00 -- -- -- -- -- 0 -- -- --
2020-11-14 03:00:00 -- -- -- -- -- 0 -- -- --
2020-11-14 02:00:00 -- -- -- -- -- 0 -- -- --
2020-11-14 01:00:00 -- -- -- -- -- 0 -- -- --
2020-11-14 00:00:00 -- -- -- -- -- 0 -- -- --
2020-11-13 23:00:00 -- -- -- -- -- 0 -- -- --
2020-11-13 22:00:00 -- -- -- -- -- 0 -- -- --
2020-11-13 21:00:00 -- -- -- -- -- 0 -- -- --
2020-11-13 20:00:00 -- -- -- -- -- 0 -- -- --
2020-11-13 19:00:00 -- -- -- -- -- 0 -- -- --
2020-11-13 18:00:00 -- -- -- -- -- 0 -- -- --
2020-11-13 17:00:00 -- -- -- -- -- 0 -- -- --
2020-11-13 16:00:00 -- 3 Sur 10 Sur 0 -- -- --
2020-11-13 15:00:00 18.5 3 Sur 9 Sudoeste 0 -- -- 79
2020-11-13 14:00:00 18.6 3 Sur 9 Sudoeste 0 -- -- 79
2020-11-13 13:00:00 18.6 5 Sur 10 Sudeste 0 -- -- 79
2020-11-13 12:00:00 18.9 4 Sudoeste 12 Sudoeste 0 -- -- 76
2020-11-13 11:00:00 17.5 0 Calma 4 Sur 0 -- -- 78
2020-11-13 10:00:00 15 0 Calma -- -- 0 -- -- 91
2020-11-13 09:00:00 13 0 Calma -- -- 0 -- -- 97
2020-11-13 08:00:00 -- -- -- -- -- 0 -- -- --
2020-11-13 07:00:00 -- -- -- -- -- 0 -- -- --
2020-11-13 06:00:00 -- -- -- -- -- 0 -- -- --
2020-11-13 05:00:00 -- -- -- -- -- 0 -- -- --
2020-11-13 04:00:00 -- -- -- -- -- 0 -- -- --
2020-11-13 03:00:00 -- -- -- -- -- 0 -- -- --
2020-11-13 02:00:00 -- -- -- -- -- 0 -- -- --
2020-11-13 01:00:00 12.6 2 Norte 3 Norte 0 -- -- 93
2020-11-13 00:00:00 13.2 0 Calma 2 Norte 0 -- -- 92
2020-11-12 23:00:00 13.4 0 Calma 2 Norte 0 -- -- 92
2020-11-12 22:00:00 13.2 0 Calma 2 Noroeste 0 -- -- 91
2020-11-12 21:00:00 13.1 2 Norte 3 Norte 0 -- -- 89
2020-11-12 20:00:00 13.6 2 Norte 4 Norte 0 -- -- 85
2020-11-12 19:00:00 15.2 2 Norte 4 Norte 0 -- -- 81
2020-11-12 18:00:00 17 0 Calma 11 Sur 0 -- -- 75
2020-11-12 17:00:00 17.8 3 Sudeste 10 Sudeste 0 -- -- 70
2020-11-12 16:00:00 18.3 3 Este 21 Sur 0 -- -- 70
2020-11-12 15:00:00 19.4 7 Sudeste 17 Sudeste 0 -- -- 66
2020-11-12 14:00:00 19.6 6 Sudeste 15 Sudeste 0 -- -- 67
2020-11-12 13:00:00 18.5 4 Sudeste 15 Sudeste 0 -- -- 69
2020-11-12 12:00:00 19.5 5 Sur 13 Sur 0 -- -- 67
2020-11-12 11:00:00 18.7 5 Sudoeste 12 Sudeste 0 -- -- 66
2020-11-12 10:00:00 15.2 0 Calma 4 Noroeste 0 -- -- 81
2020-11-12 09:00:00 13.5 0 Calma 4 Noroeste 0 -- -- 85
2020-11-12 08:00:00 13.7 2 Norte 8 Norte 0 -- -- 80
2020-11-12 07:00:00 13.1 3 Norte 10 Norte 0 -- -- 82
2020-11-12 06:00:00 13.4 3 Norte 8 Norte 0 -- -- 83
2020-11-12 05:00:00 13.8 2 Norte 8 Norte 0 -- -- 82
2020-11-12 04:00:00 12.9 0 Calma 8 Nordeste 0 -- -- 87
2020-11-12 03:00:00 12.7 0 Calma 6 Noroeste 0 -- -- 87
2020-11-12 02:00:00 12.6 3 Norte 4 Noroeste 0 -- -- 87
2020-11-12 01:00:00 13.3 0 Calma 8 Noroeste 0 -- -- 84
2020-11-12 00:00:00 12.7 3 Norte 6 Oeste 0 -- -- 86
2020-11-11 23:00:00 12.2 3 Norte 5 Noroeste 0 -- -- 89
2020-11-11 22:00:00 12.1 0 Calma 4 Norte 0 -- -- 90
2020-11-11 21:00:00 12.4 2 Norte 4 Noroeste 0 -- -- 87
2020-11-11 20:00:00 13.6 2 Norte 5 Sudoeste 0 -- -- 83
2020-11-11 19:00:00 15 0 Calma 7 Nordeste 0 -- -- 79
2020-11-11 18:00:00 16.6 0 Calma 12 Norte 0 -- -- 72
2020-11-11 17:00:00 17.3 3 Norte 11 Nordeste 0 -- -- 67
2020-11-11 16:00:00 18.2 2 Norte 13 Sudeste 0 -- -- 66
2020-11-11 15:00:00 18.1 5 Sudeste 16 Sudeste 0 -- -- 64
2020-11-11 14:00:00 18.6 6 Sudeste 22 Sudeste 0 -- -- 64
2020-11-11 13:00:00 19.7 5 Sudeste 21 Sudeste 0 -- -- 62
2020-11-11 12:00:00 19.2 5 Sudeste 17 Sudeste 0 -- -- 62
2020-11-11 11:00:00 17.4 5 Sudeste 14 Sudeste 0 -- -- 73
2020-11-11 10:00:00 15.5 2 Sur 10 Sur 0 -- -- 80
2020-11-11 09:00:00 14 2 Norte 16 Sudeste 0 -- -- 85
2020-11-11 08:00:00 12.8 3 Norte 7 Noroeste 0 -- -- 87
2020-11-11 07:00:00 12.1 0 Calma 7 Noroeste 0 -- -- 88
2020-11-11 06:00:00 12.7 2 Norte 8 Norte 0 -- -- 85
2020-11-11 05:00:00 13.6 0 Calma 14 Norte 0 -- -- 82
2020-11-11 04:00:00 12 3 Norte 9 Noroeste 0 -- -- 92
2020-11-11 03:00:00 11.1 2 Norte 4 Norte 0 -- -- 95
2020-11-11 02:00:00 11.1 2 Norte 4 Norte 0 -- -- 94
2020-11-11 01:00:00 11.2 0 Calma 4 Noroeste 0 -- -- 93
2020-11-11 00:00:00 11.5 2 Norte 4 Noroeste 0 -- -- 92
2020-11-10 23:00:00 11.7 2 Norte 4 Norte 0 -- -- 91
2020-11-10 22:00:00 12.3 0 Calma 5 Noroeste 0 -- -- 92
2020-11-10 21:00:00 12.9 2 Norte 4 Norte 0 -- -- 89
2020-11-10 20:00:00 13.9 2 Norte 4 Noroeste 0 -- -- 88
2020-11-10 19:00:00 15.1 0 Calma 3 Norte 0 -- -- 84
2020-11-10 18:00:00 16.8 0 Calma 8 Sudoeste 0 -- -- 80
2020-11-10 17:00:00 18.6 2 Sur 13 Sur 0 -- -- 71
2020-11-10 16:00:00 19.7 5 Sur 15 Sudoeste 0 -- -- 63
2020-11-10 15:00:00 20.1 5 Sur 19 Sudoeste 0 -- -- 61
2020-11-10 14:00:00 20.6 6 Sur 15 Sur 0 -- -- 58
2020-11-10 13:00:00 21 5 Sur 15 Sudoeste 0 -- -- 57
2020-11-10 12:00:00 20.7 4 Sur 9 Sur 0 -- -- 53
2020-11-10 11:00:00 18.2 3 Sudoeste 10 Sudoeste 0 -- -- 65
2020-11-10 10:00:00 14.5 3 Sur 8 Sur 0 -- -- 76
2020-11-10 09:00:00 10.8 0 Calma 4 Noroeste 0 -- -- 91
2020-11-10 08:00:00 9.6 0 Calma 4 Noroeste 0 -- -- 92
2020-11-10 07:00:00 10 0 Calma 4 Noroeste 0 -- -- 91
2020-11-10 06:00:00 10.2 2 Noroeste 4 Norte 0 -- -- 90
2020-11-10 05:00:00 10.6 0 Calma 4 Norte 0 -- -- 89
2020-11-10 04:00:00 11.3 0 Calma 5 Sudeste 0 -- -- 87
2020-11-10 03:00:00 11.8 0 Calma 7 Sudeste 0 -- -- 85
2020-11-10 02:00:00 11 0 Calma 4 Este 0 -- -- 90
2020-11-10 01:00:00 11 2 Norte 4 Noroeste 0 -- -- 88
2020-11-10 00:00:00 11.5 0 Calma 4 Noroeste 0 -- -- 90
2020-11-09 23:00:00 12 2 Noroeste 5 Norte 0 -- -- 89
2020-11-09 22:00:00 12.6 0 Calma 3 Noroeste 0 -- -- 88
2020-11-09 21:00:00 13.2 0 Calma 4 Norte 0 -- -- 87
2020-11-09 20:00:00 13.9 0 Calma 6 Norte 0 -- -- 84
2020-11-09 19:00:00 14.9 2 Norte 5 Nordeste 0 -- -- 80
2020-11-09 18:00:00 16.6 3 Norte 9 Noroeste 0 -- -- 75
2020-11-09 17:00:00 18 2 Norte 10 Norte 0 -- -- 66
2020-11-09 16:00:00 19.5 4 Norte 17 Norte 0 -- -- 62
2020-11-09 15:00:00 20.5 4 Nordeste 10 Norte 0 -- -- 61
2020-11-09 14:00:00 19.1 3 Norte 12 Sur 0 -- -- 70
2020-11-09 13:00:00 19.6 3 Sur 10 Sur 0 -- -- 73
2020-11-09 12:00:00 18.6 5 Sudoeste 10 Sur 0 -- -- 77
2020-11-09 11:00:00 14.2 0 Calma 4 Sudeste 0 -- -- 97
2020-11-09 10:00:00 12.1 0 Calma 4 Sur 0.2 -- -- 96
2020-11-09 09:00:00 11.2 0 Calma 10 Sur 0 -- -- 97
2020-11-09 08:00:00 10.2 0 Calma 2 Norte 0 -- -- 98
2020-11-09 07:00:00 9.7 0 Calma 2 Norte 0 -- -- 96
2020-11-09 06:00:00 9.7 0 Calma 3 Norte 0 -- -- 96
2020-11-09 05:00:00 9.8 0 Calma 2 Noroeste 0 -- -- 95
2020-11-09 04:00:00 10.1 0 Calma 2 Noroeste 0 -- -- 95
2020-11-09 03:00:00 10.4 0 Calma 2 Norte 0 -- -- 94
2020-11-09 02:00:00 10.7 0 Calma 2 Norte 0 -- -- 94
2020-11-09 01:00:00 10.8 0 Calma 2 Noroeste 0 -- -- 94
2020-11-09 00:00:00 11.1 0 Calma 3 Noroeste 0 -- -- 92
2020-11-08 23:00:00 11.6 0 Calma 3 Norte 0 -- -- 90
2020-11-08 22:00:00 12.3 0 Calma 3 Norte 0 -- -- 89
2020-11-08 21:00:00 12.5 2 Norte 3 Norte 0 -- -- 88
2020-11-08 20:00:00 13.4 2 Norte 3 Norte 0 -- -- 85
2020-11-08 19:00:00 14.8 2 Norte 4 Noroeste 0 -- -- 81
2020-11-08 18:00:00 16.8 0 Calma 6 Sudoeste 0 -- -- 78
2020-11-08 17:00:00 18.9 0 Calma 11 Sur 0 -- -- 68
2020-11-08 16:00:00 19.9 3 Sudeste 14 Sur 0 -- -- 62
2020-11-08 15:00:00 19.8 3 Sudoeste 19 Sur 0 -- -- 63
2020-11-08 14:00:00 20.7 5 Sur 18 Sudeste 0 -- -- 60
2020-11-08 13:00:00 20.8 5 Sudoeste 17 Sur 0 -- -- 63
2020-11-08 12:00:00 20 5 Sur 14 Sur 0 -- -- 66
2020-11-08 11:00:00 16.2 0 Calma 4 Sur 0 -- -- 82
2020-11-08 10:00:00 14.9 2 Sur 4 Sudoeste 0 -- -- 83
2020-11-08 09:00:00 11.7 0 Calma 2 Sur 0 -- -- 97
2020-11-08 08:00:00 10.1 0 Calma 2 Norte 0 -- -- 97
2020-11-08 07:00:00 10.3 0 Calma 3 Noroeste 0 -- -- 97
2020-11-08 06:00:00 10.3 0 Calma 3 Norte 0 -- -- 97
2020-11-08 05:00:00 10.4 0 Calma 3 Norte 0 -- -- 96
2020-11-08 04:00:00 10.6 0 Calma 2 Noroeste 0 -- -- 95
2020-11-08 03:00:00 10.9 0 Calma 2 Norte 0 -- -- 95
2020-11-08 02:00:00 11.1 0 Calma 2 Norte 0 -- -- 95
2020-11-08 01:00:00 11.5 0 Calma 2 Norte 0 -- -- 94
2020-11-08 00:00:00 11.7 0 Calma 3 Oeste 0 -- -- 93
2020-11-07 23:00:00 11.9 0 Calma 4 Nordeste 0 -- -- 94
2020-11-07 22:00:00 12 0 Calma 3 Norte 0 -- -- 93
2020-11-07 21:00:00 12.5 0 Calma 4 Noroeste 0 -- -- 90
2020-11-07 20:00:00 13.3 0 Calma 4 Norte 0 -- -- 87
2020-11-07 19:00:00 14.4 2 Noroeste 4 Norte 0 -- -- 83
2020-11-07 18:00:00 16.4 2 Norte 9 Sur 0 -- -- 79
2020-11-07 17:00:00 18.9 3 Sur 15 Sudeste 0 -- -- 63
2020-11-07 16:00:00 19.5 4 Sur 21 Sudoeste 0 -- -- 62
2020-11-07 15:00:00 19.7 5 Sur 14 Sudoeste 0 -- -- 60
2020-11-07 14:00:00 20.9 6 Sur 18 Sur 0 -- -- 62
2020-11-07 13:00:00 19.9 3 Sur 17 Sudoeste 0 -- -- 64
2020-11-07 12:00:00 19.3 5 Sur 17 Sur 0 -- -- 66
2020-11-07 11:00:00 16.9 2 Este 10 Noroeste 0 -- -- 86
2020-11-07 10:00:00 15.4 0 Calma 4 Sudeste 0 -- -- 96
2020-11-07 09:00:00 14.2 0 Calma 5 Nordeste 0.4 -- -- 97
2020-11-07 08:00:00 13.8 2 Norte 10 Sur 0.4 -- -- 95
2020-11-07 07:00:00 14.3 3 Noroeste 15 Sur 0.4 -- -- 95
2020-11-07 06:00:00 14.7 3 Noroeste 18 Sudeste 0.2 -- -- 94
2020-11-07 05:00:00 14.7 4 Sudeste 20 Sudoeste 1.8 -- -- 93
2020-11-07 04:00:00 14.5 5 Sudoeste 21 Sudoeste 0.8 -- -- 94
2020-11-07 03:00:00 14.5 0 Calma 5 Noroeste 0.8 -- -- 94
2020-11-07 02:00:00 14.6 0 Calma 5 Norte 0 -- -- 93
2020-11-07 01:00:00 15.1 2 Nordeste 13 Sudoeste 0.2 -- -- 89
2020-11-07 00:00:00 14.8 3 Noroeste 14 Sudoeste 0 -- -- 86
2020-11-06 23:00:00 14.5 2 Noroeste 8 Norte 0 -- -- 91
2020-11-06 22:00:00 14.6 3 Norte 7 Norte 0.2 -- -- 92
2020-11-06 21:00:00 15.7 3 Norte 6 Norte 0.6 -- -- 89
2020-11-06 20:00:00 16.7 3 Norte 5 Norte 0 -- -- 84
2020-11-06 19:00:00 17.9 2 Oeste 6 Norte 0 -- -- 72
2020-11-06 18:00:00 18.7 2 Sudoeste 7 Oeste 0 -- -- 69
2020-11-06 17:00:00 20.1 2 Norte 6 Sudoeste 0 -- -- 63
2020-11-06 16:00:00 21.5 0 Calma 9 Norte 0 -- -- 58
2020-11-06 15:00:00 22.6 3 Este 18 Sudeste 0 -- -- 52
2020-11-06 14:00:00 23.8 7 Sudeste 19 Sudeste 0 -- -- 43
2020-11-06 13:00:00 23.2 4 Sudeste 24 Sudoeste 0 -- -- 45
2020-11-06 12:00:00 22.3 6 Este 23 Sudeste 0 -- -- 48
2020-11-06 11:00:00 22.2 7 Este 27 Este 0 -- -- 46
2020-11-06 10:00:00 21.6 7 Sudeste 19 Sudeste 0 -- -- 49
2020-11-06 09:00:00 20.4 6 Este 23 Norte 0 -- -- 53
2020-11-06 08:00:00 20.3 7 Nordeste 25 Sur 0 -- -- 52
2020-11-06 07:00:00 19.5 7 Este 24 Sudeste 0 -- -- 56
2020-11-06 06:00:00 15.9 3 Norte 13 Sudeste 0 -- -- 78
2020-11-06 05:00:00 15.1 2 Norte 6 Norte 0 -- -- 81
2020-11-06 04:00:00 13.8 3 Norte 8 Sur 0 -- -- 89
2020-11-06 03:00:00 13.3 2 Norte 7 Norte 0 -- -- 94
2020-11-06 02:00:00 13.6 2 Norte 5 Sudoeste 0.2 -- -- 94
2020-11-06 01:00:00 13.9 3 Norte 5 Norte 0 -- -- 94
2020-11-06 00:00:00 14.2 3 Norte 5 Norte 0 -- -- 92
2020-11-05 23:00:00 14.2 3 Noroeste 7 Norte 0 -- -- 89
2020-11-05 22:00:00 14.4 2 Oeste 6 Norte 0 -- -- 87
2020-11-05 21:00:00 14.7 3 Norte 8 Sudoeste 0 -- -- 89
2020-11-05 20:00:00 15.4 2 Noroeste 7 Norte 0 -- -- 87
2020-11-05 19:00:00 16.2 2 Noroeste 5 Nordeste 0 -- -- 87
2020-11-05 18:00:00 18.1 0 Calma 9 Sudeste 0 -- -- 84
2020-11-05 17:00:00 19.4 4 Sudeste 16 Este 0 -- -- 71
2020-11-05 16:00:00 20 3 Nordeste 20 Sudeste 0 -- -- 66
2020-11-05 15:00:00 20.6 6 Sudeste 19 Sudeste 0 -- -- 64
2020-11-05 14:00:00 20.6 7 Sur 26 Sudeste 0 -- -- 65
2020-11-05 13:00:00 20.4 8 Sudeste 29 Sur 0 -- -- 68
2020-11-05 12:00:00 18.1 8 Sudeste 23 Sur 0 -- -- 83
2020-11-05 11:00:00 17 9 Sudeste 24 Sudeste 0 -- -- 90
2020-11-05 10:00:00 15.8 5 Sur 23 Sur 1 -- -- 95
2020-11-05 09:00:00 15.7 7 Sur 30 Este 0.4 -- -- 94
2020-11-05 08:00:00 15.1 4 Sur 40 Este 12.8 -- -- 95
2020-11-05 07:00:00 15.3 8 Sur 35 Sur 5 -- -- 93
2020-11-05 06:00:00 15.6 8 Sur 36 Sudoeste 2.2 -- -- 94
2020-11-05 05:00:00 16 9 Sudeste 42 Sur 1.4 -- -- 86
2020-11-05 04:00:00 15.2 9 Sudeste 35 Sur 0.4 -- -- 84
2020-11-05 03:00:00 14.8 5 Sudeste 14 Este 0 -- -- 89
2020-11-05 02:00:00 14.5 4 Sudeste 23 Este 0 -- -- 92
2020-11-05 01:00:00 14.7 8 Sudeste 36 Sur 0.6 -- -- 93
2020-11-05 00:00:00 14.3 10 Sur 30 Sur 12 -- -- 96
2020-11-04 23:00:00 14.5 3 Norte 24 Sudeste 1 -- -- 94
2020-11-04 22:00:00 13.7 3 Norte 6 Sur 0 -- -- 95
2020-11-04 21:00:00 13.6 0 Calma 5 Sur 0 -- -- 95
2020-11-04 20:00:00 13.6 2 Norte 3 Norte 0 -- -- 94
2020-11-04 19:00:00 14.2 2 Norte 4 Norte 0 -- -- 92
2020-11-04 18:00:00 15.6 0 Calma 4 Sudoeste 0 -- -- 92
2020-11-04 17:00:00 15.9 3 Sur 6 Sudeste 0 -- -- 91
2020-11-04 16:00:00 15.9 2 Sudeste 5 Oeste 0.2 -- -- 89
2020-11-04 15:00:00 15.7 0 Calma 9 Sudeste 0.8 -- -- 92
2020-11-04 14:00:00 16.6 5 Sur 14 Sur 0 -- -- 81
2020-11-04 13:00:00 17.2 3 Sur 12 Sur 0 -- -- 76
2020-11-04 12:00:00 16.3 2 Sudoeste 6 Sur 0 -- -- 83
2020-11-04 11:00:00 15.3 0 Calma 3 Sudeste 0 -- -- 92
2020-11-04 10:00:00 14.3 0 Calma 5 Sudoeste 0.8 -- -- 94
2020-11-04 09:00:00 13.4 0 Calma 2 Norte 0 -- -- 95
2020-11-04 08:00:00 13.2 0 Calma 2 Noroeste 0 -- -- 94
2020-11-04 07:00:00 13.3 0 Calma 2 Norte 0 -- -- 94
2020-11-04 06:00:00 13.5 0 Calma 2 Norte 0 -- -- 92
2020-11-04 05:00:00 13.9 0 Calma 2 Nordeste 0 -- -- 91
2020-11-04 04:00:00 14.2 0 Calma 4 Sur 0 -- -- 92
2020-11-04 03:00:00 14.2 0 Calma 4 Sudeste 0 -- -- 92
2020-11-04 02:00:00 14.1 0 Calma 4 Oeste 0 -- -- 91
2020-11-04 01:00:00 13.7 0 Calma 2 Norte 0 -- -- 92
2020-11-04 00:00:00 13.6 0 Calma 2 Noroeste 0 -- -- 91
2020-11-03 23:00:00 13.9 0 Calma 2 Norte 0 -- -- 90
2020-11-03 22:00:00 14.1 0 Calma 2 Noroeste 0 -- -- 88
2020-11-03 21:00:00 14.9 0 Calma 2 Norte 0 -- -- 86
2020-11-03 20:00:00 15.8 2 Norte 2 Norte 0 -- -- 83
2020-11-03 19:00:00 17.1 0 Calma 4 Este 0 -- -- 78
2020-11-03 18:00:00 19.1 0 Calma 4 Nordeste 0 -- -- 72
2020-11-03 17:00:00 20.4 0 Calma 6 Sur 0 -- -- 64
2020-11-03 16:00:00 21.1 2 Sudeste 10 Sur 0 -- -- 59
2020-11-03 15:00:00 21.3 4 Sur 14 Sur 0 -- -- 57
2020-11-03 14:00:00 21.2 4 Sur 10 Sur 0 -- -- 58
2020-11-03 13:00:00 20.5 5 Sur 15 Sudoeste 0 -- -- 63
2020-11-03 12:00:00 21 4 Sur 13 Sudoeste 0 -- -- 58
2020-11-03 11:00:00 19.8 3 Sur 6 Sudoeste 0 -- -- 58
2020-11-03 10:00:00 16.7 2 Sur 4 Sudoeste 0 -- -- 69
2020-11-03 09:00:00 13 0 Calma 3 Sudeste 0 -- -- 85
2020-11-03 08:00:00 10.3 0 Calma 3 Norte 0 -- -- 92
2020-11-03 07:00:00 10.4 0 Calma 3 Norte 0 -- -- 91
2020-11-03 06:00:00 10.8 2 Noroeste 4 Noroeste 0 -- -- 91
2020-11-03 05:00:00 10.9 2 Norte 3 Norte 0 -- -- 91
2020-11-03 04:00:00 11.2 0 Calma 3 Norte 0 -- -- 90
2020-11-03 03:00:00 11.4 2 Norte -- -- 0 -- -- 90
2020-11-03 02:00:00 11.7 2 Norte 3 Norte 0 -- -- 90
2020-11-03 01:00:00 12.1 0 Calma 3 Norte 0 -- -- 89
2020-11-03 00:00:00 12.7 0 Calma 3 Noroeste 0 -- -- 90
2020-11-02 23:00:00 13 2 Norte 3 Noroeste 0 -- -- 89
2020-11-02 22:00:00 13.5 2 Norte 3 Noroeste 0 -- -- 88
2020-11-02 21:00:00 14.2 2 Norte 3 Norte 0 -- -- 87
2020-11-02 20:00:00 15.3 0 Calma 4 Norte 0 -- -- 83
2020-11-02 19:00:00 16.9 2 Norte 3 Norte 0 -- -- 79
2020-11-02 18:00:00 18.9 0 Calma 5 Sudoeste 0 -- -- 74
2020-11-02 17:00:00 20.8 0 Calma 11 Sur 0 -- -- 67
2020-11-02 16:00:00 22.1 3 Noroeste 17 Sur 0 -- -- 61
2020-11-02 15:00:00 22.5 6 Sur 14 Sur 0 -- -- 58
2020-11-02 14:00:00 22.1 6 Sur 16 Sur 0 -- -- 61
2020-11-02 13:00:00 21.6 4 Sur 11 Sur 0 -- -- 60
2020-11-02 12:00:00 19.5 5 Sur 12 Sur 0 -- -- 60
2020-11-02 11:00:00 17.7 5 Sur 9 Sur 0 -- -- 65
2020-11-02 10:00:00 16.4 3 Sur 5 Sur 0 -- -- 65
2020-11-02 09:00:00 12.7 0 Calma 3 Sudeste 0 -- -- 85
2020-11-02 08:00:00 9.7 2 Norte 3 Norte 0 -- -- 89
2020-11-02 07:00:00 9.9 2 Norte 3 Norte 0 -- -- 88
2020-11-02 06:00:00 10.2 0 Calma 3 Norte 0 -- -- 88
2020-11-02 05:00:00 10.6 2 Noroeste 3 Norte 0 -- -- 88
2020-11-02 04:00:00 11.1 0 Calma 3 Norte 0 -- -- 90
2020-11-02 03:00:00 11.7 0 Calma 3 Noroeste 0 -- -- 90
2020-11-02 02:00:00 12.1 0 Calma 3 Noroeste 0 -- -- 89
2020-11-02 01:00:00 12.5 2 Norte 4 Norte 0 -- -- 88
2020-11-02 00:00:00 13 0 Calma 3 Norte 0 -- -- 87